Ironia, New Jersey
Current Conditions -  °F | °C
As of 1:45 PM on Monday 20 Oct 2014 (Local Time) from KMMU Reporting Station
Overcast Overcast  
Wind Chill: 57°   Ceiling: 25000
Heat Index: 57°   Visibility: 25mi
Dew Point: 36°   Wind: 13mph
Humidity: 44%   Direction: 220°SW
Pressure: 30.03"   Gusts: NA
Location:  40.82°N, 74.63°W
Report Text: KMMU 201745Z 22011KT 25SM SCT130 OVC250 14/02 A3003
Loading
Personal Weather Stations






























Interactive Weather Map
Tropical Storm Tracking
New forecast layout! Learn more

10-Day Weather Forecast

Advertisements
Track Severe Weather on mobile